Time;durP1;ratioP1;P1;durP2;ratioP2;P2;SDS_P1;SDS_P2;PMS_P1;PMS_P2;Temp;Humidity;BMP_temperature;BMP_pressure;BME280_temperature;BME280_humidity;BME280_pressure;Samples;Min_cycle;Max_cycle;Signal;HPM_P1;HPM_P2
2022/10/20 00:01:34;;;;;;;14.77;10.63;;;;;;;;;;5051564;28;20033;-74
2022/10/20 00:04:00;;;;;;;16.05;9.82;;;;;;;;;;5037101;28;20047;-73
2022/10/20 00:06:31;;;;;;;14.80;8.95;;;;;;;;;;5039640;28;20031;-74
2022/10/20 00:08:57;;;;;;;14.18;8.90;;;;;;;;;;5037000;28;20018;-73
2022/10/20 00:11:24;;;;;;;12.98;8.98;;;;;;;;;;5037824;28;20438;-74
2022/10/20 00:13:51;;;;;;;13.15;8.65;;;;;;;;;;5036787;28;20411;-74
2022/10/20 00:16:17;;;;;;;16.52;9.60;;;;;;;;;;5050059;28;20040;-74
2022/10/20 00:18:44;;;;;;;13.15;9.07;;;;;;;;;;5037210;28;20037;-74
2022/10/20 00:21:12;;;;;;;14.63;9.38;;;;;;;;;;5055390;28;20034;-74
2022/10/20 00:23:38;;;;;;;17.17;9.77;;;;;;;;;;5058647;28;20041;-73
2022/10/20 00:26:08;;;;;;;16.30;9.85;;;;;;;;;;5057618;28;20024;-74
2022/10/20 00:28:35;;;;;;;15.30;8.55;;;;;;;;;;5047279;28;20021;-74
2022/10/20 00:31:01;;;;;;;15.23;10.13;;;;;;;;;;5046122;28;20029;-74
2022/10/20 00:33:27;;;;;;;15.68;8.80;;;;;;;;;;5057580;28;20047;-73
2022/10/20 00:35:53;;;;;;;15.30;8.98;;;;;;;;;;5058924;28;20025;-73
2022/10/20 00:38:19;;;;;;;13.30;9.13;;;;;;;;;;5058638;28;20033;-73
2022/10/20 00:40:45;;;;;;;15.32;10.27;;;;;;;;;;5060031;28;20033;-73
2022/10/20 00:43:12;;;;;;;11.15;8.57;;;;;;;;;;5042492;28;20307;-73
2022/10/20 00:45:38;;;;;;;18.55;8.93;;;;;;;;;;5058584;28;20055;-73
2022/10/20 00:48:06;;;;;;;16.50;9.10;;;;;;;;;;5060193;28;20024;-73
2022/10/20 00:50:40;;;;;;;15.48;9.60;;;;;;;;;;5030124;28;20037;-74
2022/10/20 00:53:07;;;;;;;14.50;9.40;;;;;;;;;;5022310;28;20056;-73
2022/10/20 00:55:35;;;;;;;15.93;8.90;;;;;;;;;;5040046;28;20128;-73
2022/10/20 00:58:01;;;;;;;13.13;9.32;;;;;;;;;;5048596;28;20025;-73
2022/10/20 01:00:28;;;;;;;15.48;8.77;;;;;;;;;;5058310;28;20039;-73
2022/10/20 01:02:57;;;;;;;13.13;8.63;;;;;;;;;;5058157;28;20415;-74
2022/10/20 01:05:23;;;;;;;14.77;9.40;;;;;;;;;;5057722;28;20025;-74
2022/10/20 01:07:49;;;;;;;13.23;8.70;;;;;;;;;;5059595;28;20021;-74
2022/10/20 01:10:16;;;;;;;12.73;8.73;;;;;;;;;;5047983;28;20350;-74
2022/10/20 01:12:42;;;;;;;13.27;8.52;;;;;;;;;;5023587;28;20033;-74
2022/10/20 01:15:11;;;;;;;12.13;8.40;;;;;;;;;;5039634;28;20021;-74
2022/10/20 01:17:55;;;;;;;15.30;8.35;;;;;;;;;;5039695;28;20084;-74
2022/10/20 01:20:40;;;;;;;14.38;9.05;;;;;;;;;;5040956;28;20029;-74
2022/10/20 01:23:15;;;;;;;15.15;8.95;;;;;;;;;;5039430;28;20057;-74
2022/10/20 01:25:44;;;;;;;15.60;8.85;;;;;;;;;;5039682;28;20033;-74
2022/10/20 01:28:21;;;;;;;20.52;9.43;;;;;;;;;;5040625;28;20029;-74
2022/10/20 01:30:50;;;;;;;13.82;9.15;;;;;;;;;;5055584;28;20025;-74
2022/10/20 01:33:16;;;;;;;14.93;9.25;;;;;;;;;;5039858;28;20041;-74
2022/10/20 01:35:57;;;;;;;18.10;10.40;;;;;;;;;;5040484;28;20032;-74
2022/10/20 01:38:30;;;;;;;15.83;10.33;;;;;;;;;;5043467;28;20033;-73
2022/10/20 01:41:07;;;;;;;16.10;9.90;;;;;;;;;;5028240;28;20084;-73
2022/10/20 01:43:35;;;;;;;20.98;10.35;;;;;;;;;;5039218;28;20049;-74
2022/10/20 01:46:03;;;;;;;22.90;11.98;;;;;;;;;;5039096;28;20053;-73
2022/10/20 01:48:31;;;;;;;22.70;11.57;;;;;;;;;;5038083;28;20033;-74
2022/10/20 01:50:57;;;;;;;23.77;12.55;;;;;;;;;;5040040;28;20029;-74
2022/10/20 01:53:23;;;;;;;26.23;13.23;;;;;;;;;;5039994;28;20037;-74
2022/10/20 01:55:51;;;;;;;25.38;11.57;;;;;;;;;;5040018;28;20116;-74
2022/10/20 01:58:36;;;;;;;15.25;9.27;;;;;;;;;;5041774;28;20030;-74
2022/10/20 02:01:11;;;;;;;23.23;9.85;;;;;;;;;;5057082;28;20029;-74
2022/10/20 02:03:49;;;;;;;20.15;10.05;;;;;;;;;;5057146;28;20025;-74
2022/10/20 02:06:25;;;;;;;21.95;9.57;;;;;;;;;;5058106;28;20327;-74
2022/10/20 02:08:58;;;;;;;20.02;11.63;;;;;;;;;;5052741;28;20045;-73
2022/10/20 02:11:45;;;;;;;26.48;13.35;;;;;;;;;;5055001;28;20035;-74
2022/10/20 02:14:12;;;;;;;26.35;13.15;;;;;;;;;;4977934;28;20039;-74
2022/10/20 02:16:45;;;;;;;19.48;11.45;;;;;;;;;;4958867;28;20035;-73
2022/10/20 02:19:12;;;;;;;27.45;13.75;;;;;;;;;;4958744;29;20039;-73
2022/10/20 02:21:39;;;;;;;35.42;16.52;;;;;;;;;;4959463;28;20049;-73
2022/10/20 02:24:06;;;;;;;25.73;11.75;;;;;;;;;;4958385;28;20098;-73
2022/10/20 02:26:33;;;;;;;17.65;9.70;;;;;;;;;;4958799;28;20034;-73
2022/10/20 02:29:02;;;;;;;87.47;37.90;;;;;;;;;;4959485;28;20061;-73
2022/10/20 02:31:29;;;;;;;68.85;31.33;;;;;;;;;;4973607;28;20044;-73
2022/10/20 02:33:56;;;;;;;27.75;14.73;;;;;;;;;;4977757;28;20409;-74
2022/10/20 02:36:28;;;;;;;21.67;10.38;;;;;;;;;;4959681;28;20035;-74
2022/10/20 02:38:54;;;;;;;16.58;8.73;;;;;;;;;;4959285;28;20051;-74
2022/10/20 02:41:21;;;;;;;13.00;8.43;;;;;;;;;;4959167;28;20062;-73
2022/10/20 02:43:47;;;;;;;12.68;8.02;;;;;;;;;;4973719;28;20031;-74
2022/10/20 02:46:13;;;;;;;12.75;8.27;;;;;;;;;;4958085;28;20034;-74
2022/10/20 02:48:39;;;;;;;12.88;7.60;;;;;;;;;;4958089;28;20027;-74
2022/10/20 02:51:05;;;;;;;13.75;8.65;;;;;;;;;;4994321;28;20439;-74
2022/10/20 02:53:31;;;;;;;12.32;8.32;;;;;;;;;;5038745;28;20104;-74
2022/10/20 02:55:57;;;;;;;10.00;7.90;;;;;;;;;;5054015;28;20025;-73
2022/10/20 02:58:23;;;;;;;11.48;7.30;;;;;;;;;;5041375;28;20285;-74
2022/10/20 03:00:50;;;;;;;13.73;7.57;;;;;;;;;;5021240;28;20087;-73
2022/10/20 03:03:16;;;;;;;10.77;7.43;;;;;;;;;;5039588;28;20025;-74
2022/10/20 03:05:43;;;;;;;12.38;7.47;;;;;;;;;;5044660;28;20468;-73
2022/10/20 03:08:10;;;;;;;11.13;7.45;;;;;;;;;;5057741;28;20441;-73
2022/10/20 03:10:37;;;;;;;11.88;8.48;;;;;;;;;;5057249;28;20400;-74
2022/10/20 03:13:03;;;;;;;16.80;11.40;;;;;;;;;;5046789;28;20037;-74
2022/10/20 03:15:29;;;;;;;15.00;9.98;;;;;;;;;;5037437;28;20044;-74
2022/10/20 03:17:55;;;;;;;12.75;8.00;;;;;;;;;;5037464;28;20066;-74
2022/10/20 03:20:21;;;;;;;15.15;7.75;;;;;;;;;;5037456;28;20326;-74
2022/10/20 03:22:47;;;;;;;13.05;8.40;;;;;;;;;;5037238;28;20062;-74
2022/10/20 03:25:13;;;;;;;11.73;7.70;;;;;;;;;;5037636;28;20032;-73
2022/10/20 03:27:39;;;;;;;14.82;8.52;;;;;;;;;;5037171;28;20036;-73
2022/10/20 03:30:06;;;;;;;11.43;8.45;;;;;;;;;;5036842;28;20108;-73
2022/10/20 03:32:32;;;;;;;17.80;8.98;;;;;;;;;;5036699;28;20029;-73
2022/10/20 03:34:58;;;;;;;14.88;9.52;;;;;;;;;;5036842;28;20293;-73
2022/10/20 03:37:24;;;;;;;16.80;9.52;;;;;;;;;;5037068;28;20036;-73
2022/10/20 03:39:50;;;;;;;18.23;9.55;;;;;;;;;;5036485;28;20041;-74
2022/10/20 03:42:16;;;;;;;14.57;9.95;;;;;;;;;;5036865;28;20029;-73
2022/10/20 03:44:43;;;;;;;17.20;10.68;;;;;;;;;;5036561;28;20041;-74
2022/10/20 03:47:10;;;;;;;22.30;11.02;;;;;;;;;;5036850;28;20063;-73
2022/10/20 03:49:36;;;;;;;17.20;9.07;;;;;;;;;;5036127;28;20028;-72
2022/10/20 03:52:02;;;;;;;16.75;8.55;;;;;;;;;;5036526;28;20017;-73
2022/10/20 03:54:28;;;;;;;11.02;7.38;;;;;;;;;;5037089;28;20030;-76
2022/10/20 03:56:54;;;;;;;10.13;6.97;;;;;;;;;;5036935;28;20075;-74
2022/10/20 03:59:20;;;;;;;13.57;7.30;;;;;;;;;;5037139;28;20029;-74
2022/10/20 04:01:46;;;;;;;16.00;7.18;;;;;;;;;;5036216;28;20061;-74
2022/10/20 04:04:12;;;;;;;11.07;6.60;;;;;;;;;;5037002;28;20423;-74
2022/10/20 04:06:38;;;;;;;10.43;6.63;;;;;;;;;;5036882;28;20021;-73
2022/10/20 04:09:05;;;;;;;13.35;6.38;;;;;;;;;;5036875;28;20025;-74
2022/10/20 04:11:31;;;;;;;9.48;6.90;;;;;;;;;;5036870;28;20034;-74
2022/10/20 04:13:57;;;;;;;10.52;6.28;;;;;;;;;;5036801;28;20022;-73
2022/10/20 04:16:23;;;;;;;13.85;6.65;;;;;;;;;;5036839;28;20079;-73
2022/10/20 04:18:51;;;;;;;14.23;7.65;;;;;;;;;;5035147;28;20042;-73
2022/10/20 04:21:17;;;;;;;14.15;7.18;;;;;;;;;;5036873;28;20029;-74
2022/10/20 04:23:43;;;;;;;11.07;6.93;;;;;;;;;;5031501;28;20507;-74
2022/10/20 04:26:13;;;;;;;10.93;6.68;;;;;;;;;;5017192;28;20113;-74
2022/10/20 04:28:39;;;;;;;8.88;6.18;;;;;;;;;;5016975;28;20038;-74
2022/10/20 04:31:06;;;;;;;7.07;5.63;;;;;;;;;;5017236;28;20030;-74
2022/10/20 04:33:32;;;;;;;12.15;6.15;;;;;;;;;;5016207;28;20301;-74
2022/10/20 04:36:03;;;;;;;11.32;6.38;;;;;;;;;;5016190;28;20030;-74
2022/10/20 04:38:30;;;;;;;11.93;6.20;;;;;;;;;;5016958;28;20471;-74
2022/10/20 04:40:57;;;;;;;11.40;6.00;;;;;;;;;;5016851;28;20076;-74
2022/10/20 04:43:23;;;;;;;11.52;5.88;;;;;;;;;;5016828;28;20396;-74
2022/10/20 04:45:49;;;;;;;10.75;6.20;;;;;;;;;;5016994;28;20018;-74
2022/10/20 04:48:16;;;;;;;39.08;8.43;;;;;;;;;;5016868;28;20029;-74
2022/10/20 04:50:42;;;;;;;9.52;6.07;;;;;;;;;;5016872;28;20128;-74
2022/10/20 04:53:08;;;;;;;11.38;6.43;;;;;;;;;;5016715;28;20045;-74
2022/10/20 04:55:35;;;;;;;13.88;6.60;;;;;;;;;;5016842;28;20029;-74
2022/10/20 04:58:01;;;;;;;9.32;5.95;;;;;;;;;;5016591;28;20053;-74
2022/10/20 05:00:27;;;;;;;22.00;6.75;;;;;;;;;;5016770;28;20036;-74
2022/10/20 05:02:54;;;;;;;10.43;5.72;;;;;;;;;;5016582;28;20045;-74
2022/10/20 05:05:20;;;;;;;8.80;5.88;;;;;;;;;;5016790;28;20030;-72
2022/10/20 05:07:46;;;;;;;8.93;6.20;;;;;;;;;;5016806;28;20022;-74
2022/10/20 05:10:12;;;;;;;11.82;6.18;;;;;;;;;;5020238;28;20026;-74
2022/10/20 05:12:38;;;;;;;11.95;6.30;;;;;;;;;;5020286;28;20392;-74
2022/10/20 05:15:04;;;;;;;10.05;5.40;;;;;;;;;;5020063;28;20116;-74
2022/10/20 05:17:31;;;;;;;9.27;5.38;;;;;;;;;;5019273;28;20034;-73
2022/10/20 05:19:57;;;;;;;8.45;5.38;;;;;;;;;;5020177;28;20065;-73
2022/10/20 05:22:23;;;;;;;10.15;6.35;;;;;;;;;;5020904;28;20029;-74
2022/10/20 05:24:49;;;;;;;9.75;5.57;;;;;;;;;;5039559;28;20316;-74
2022/10/20 05:27:15;;;;;;;7.90;5.32;;;;;;;;;;5039546;28;20323;-74
2022/10/20 05:29:41;;;;;;;10.77;5.47;;;;;;;;;;5039657;28;20033;-74
2022/10/20 05:32:07;;;;;;;10.88;5.60;;;;;;;;;;5039825;28;20037;-73
2022/10/20 05:34:33;;;;;;;10.68;5.85;;;;;;;;;;5039320;28;20311;-74
2022/10/20 05:36:59;;;;;;;11.55;7.55;;;;;;;;;;5039531;28;20030;-74
2022/10/20 05:39:24;;;;;;;11.73;8.00;;;;;;;;;;5039518;28;20026;-73
2022/10/20 05:41:50;;;;;;;12.50;7.07;;;;;;;;;;5039353;28;20034;-74
2022/10/20 05:44:16;;;;;;;14.52;7.88;;;;;;;;;;5039151;28;20021;-73
2022/10/20 05:46:42;;;;;;;19.52;9.25;;;;;;;;;;5039237;28;20029;-73
2022/10/20 05:49:14;;;;;;;16.77;9.02;;;;;;;;;;5039315;28;20340;-73
2022/10/20 05:51:40;;;;;;;17.13;9.10;;;;;;;;;;5039263;28;20506;-73
2022/10/20 05:54:06;;;;;;;16.13;9.32;;;;;;;;;;5039047;28;20732;-73
2022/10/20 05:56:33;;;;;;;18.90;9.00;;;;;;;;;;5039196;28;20033;-73
2022/10/20 05:58:59;;;;;;;16.33;9.02;;;;;;;;;;5039166;28;20028;-74
2022/10/20 06:01:46;;;;;;;12.13;7.13;;;;;;;;;;5038895;28;20396;-73
2022/10/20 06:04:12;;;;;;;11.35;5.80;;;;;;;;;;5038857;28;20411;-73
2022/10/20 06:06:38;;;;;;;6.88;4.60;;;;;;;;;;5038994;28;20022;-74
2022/10/20 06:09:05;;;;;;;4.88;3.70;;;;;;;;;;5038828;28;20320;-74
2022/10/20 06:11:31;;;;;;;8.38;3.53;;;;;;;;;;5038767;28;20029;-74
2022/10/20 06:13:57;;;;;;;6.47;3.65;;;;;;;;;;5038704;28;20312;-73
2022/10/20 06:16:24;;;;;;;6.05;3.88;;;;;;;;;;5038884;28;20025;-74
2022/10/20 06:18:51;;;;;;;8.73;3.67;;;;;;;;;;5038818;28;20025;-74
2022/10/20 06:21:18;;;;;;;7.53;4.13;;;;;;;;;;5038574;28;20022;-74
2022/10/20 06:23:44;;;;;;;6.28;3.25;;;;;;;;;;5038322;28;20411;-74
2022/10/20 06:26:12;;;;;;;8.52;3.47;;;;;;;;;;5038482;28;20021;-74
2022/10/20 06:28:39;;;;;;;5.72;3.83;;;;;;;;;;5038805;28;20361;-74
2022/10/20 06:31:18;;;;;;;5.03;3.25;;;;;;;;;;5038553;28;20033;-74
2022/10/20 06:33:44;;;;;;;4.82;2.78;;;;;;;;;;5038572;28;20104;-74
2022/10/20 06:36:10;;;;;;;4.15;2.90;;;;;;;;;;5038456;28;20022;-74
2022/10/20 06:38:37;;;;;;;4.97;3.10;;;;;;;;;;5038268;28;20032;-74
2022/10/20 06:41:07;;;;;;;5.53;3.40;;;;;;;;;;5038190;28;20041;-74
2022/10/20 06:43:33;;;;;;;6.30;3.08;;;;;;;;;;5037099;28;20021;-74
2022/10/20 06:46:03;;;;;;;9.48;2.90;;;;;;;;;;5038299;28;20052;-74
2022/10/20 06:48:29;;;;;;;3.50;2.53;;;;;;;;;;5038369;28;20017;-73
2022/10/20 06:50:56;;;;;;;7.80;3.17;;;;;;;;;;5038107;28;20117;-74
2022/10/20 06:53:22;;;;;;;6.40;3.75;;;;;;;;;;5038164;28;20340;-74
2022/10/20 06:55:55;;;;;;;7.40;2.88;;;;;;;;;;5037641;28;20025;-74
2022/10/20 06:58:21;;;;;;;6.53;3.00;;;;;;;;;;5038076;28;20028;-74
2022/10/20 07:00:47;;;;;;;6.43;2.45;;;;;;;;;;5037586;28;20026;-74
2022/10/20 07:03:13;;;;;;;3.83;2.88;;;;;;;;;;5037813;28;20308;-74
2022/10/20 07:05:39;;;;;;;6.18;2.67;;;;;;;;;;5036190;28;20040;-74
2022/10/20 07:08:05;;;;;;;5.60;3.05;;;;;;;;;;5037792;28;20025;-74
2022/10/20 07:10:31;;;;;;;5.30;2.70;;;;;;;;;;5037724;28;20022;-74
2022/10/20 07:12:57;;;;;;;6.35;2.78;;;;;;;;;;5037395;28;20396;-74
2022/10/20 07:15:23;;;;;;;4.25;2.55;;;;;;;;;;5037376;28;20018;-74
2022/10/20 07:17:49;;;;;;;9.48;3.13;;;;;;;;;;5037673;28;20029;-74
2022/10/20 07:20:15;;;;;;;6.93;3.05;;;;;;;;;;5037645;28;20043;-74
2022/10/20 07:22:41;;;;;;;7.40;3.25;;;;;;;;;;5037045;28;20487;-74
2022/10/20 07:25:08;;;;;;;4.97;2.53;;;;;;;;;;5037363;28;20049;-74
2022/10/20 07:27:34;;;;;;;3.97;2.80;;;;;;;;;;5037692;28;20090;-73
2022/10/20 07:30:00;;;;;;;7.32;2.83;;;;;;;;;;5037355;28;20475;-74
2022/10/20 07:32:26;;;;;;;6.25;2.85;;;;;;;;;;5036882;28;20156;-74
2022/10/20 07:34:53;;;;;;;5.97;2.70;;;;;;;;;;5037323;28;20112;-74
2022/10/20 07:37:19;;;;;;;5.10;2.70;;;;;;;;;;5037306;28;20018;-74
2022/10/20 07:39:45;;;;;;;3.92;2.58;;;;;;;;;;5035563;28;20040;-73
2022/10/20 07:42:11;;;;;;;7.15;2.97;;;;;;;;;;5037261;28;20108;-73
2022/10/20 07:44:37;;;;;;;7.05;2.90;;;;;;;;;;5037269;28;20064;-74
2022/10/20 07:47:03;;;;;;;6.60;3.20;;;;;;;;;;5037290;28;20022;-74
2022/10/20 07:49:29;;;;;;;9.38;4.85;;;;;;;;;;5035636;28;20314;-73
2022/10/20 07:51:55;;;;;;;12.55;8.02;;;;;;;;;;5036901;28;20056;-74
2022/10/20 07:54:21;;;;;;;9.88;5.63;;;;;;;;;;5036936;28;20068;-74
2022/10/20 07:56:48;;;;;;;10.15;3.83;;;;;;;;;;5036763;28;20025;-74
2022/10/20 07:59:14;;;;;;;4.28;2.75;;;;;;;;;;5037256;28;20033;-73
2022/10/20 08:01:40;;;;;;;12.88;7.72;;;;;;;;;;5035841;28;20075;-74
2022/10/20 08:04:06;;;;;;;5.43;3.03;;;;;;;;;;5037098;28;20371;-74
2022/10/20 08:06:32;;;;;;;9.25;4.50;;;;;;;;;;5036976;28;20326;-74
2022/10/20 08:08:59;;;;;;;4.70;2.95;;;;;;;;;;5036932;28;20025;-74
2022/10/20 08:11:25;;;;;;;6.82;3.00;;;;;;;;;;5036798;28;20079;-74
2022/10/20 08:13:51;;;;;;;5.93;3.33;;;;;;;;;;5036748;28;20030;-74
2022/10/20 08:16:18;;;;;;;6.00;2.55;;;;;;;;;;5035746;28;20148;-74
2022/10/20 08:18:44;;;;;;;5.68;2.45;;;;;;;;;;5036897;28;20032;-74
2022/10/20 08:21:12;;;;;;;6.30;2.80;;;;;;;;;;5036806;28;20033;-74
2022/10/20 08:23:43;;;;;;;7.95;3.42;;;;;;;;;;5037201;28;20124;-74
2022/10/20 08:26:09;;;;;;;5.50;2.38;;;;;;;;;;5036850;28;20061;-74
2022/10/20 08:28:36;;;;;;;3.25;2.22;;;;;;;;;;5036672;28;20021;-74
2022/10/20 08:31:06;;;;;;;6.43;2.25;;;;;;;;;;5036778;28;20029;-74
2022/10/20 08:33:32;;;;;;;3.85;1.70;;;;;;;;;;5036625;28;20038;-74
2022/10/20 08:36:06;;;;;;;4.97;1.83;;;;;;;;;;5036789;28;20021;-74
2022/10/20 08:38:32;;;;;;;4.38;1.98;;;;;;;;;;5036554;28;20319;-74
2022/10/20 08:40:58;;;;;;;4.32;1.73;;;;;;;;;;5036827;28;20053;-74
2022/10/20 08:43:25;;;;;;;4.28;1.48;;;;;;;;;;5037405;28;20052;-75
2022/10/20 08:45:51;;;;;;;3.38;1.50;;;;;;;;;;5040497;28;20347;-74
2022/10/20 08:48:19;;;;;;;5.13;3.65;;;;;;;;;;5040469;28;20021;-74
2022/10/20 08:50:46;;;;;;;5.75;2.60;;;;;;;;;;5040368;28;20025;-74
2022/10/20 08:53:12;;;;;;;4.90;1.88;;;;;;;;;;5022991;28;20059;-74
2022/10/20 08:55:39;;;;;;;5.45;2.67;;;;;;;;;;5040131;28;20307;-74
2022/10/20 08:58:06;;;;;;;3.47;2.17;;;;;;;;;;5040372;28;20029;-74
2022/10/20 09:00:35;;;;;;;4.30;1.88;;;;;;;;;;5040149;28;20423;-75
2022/10/20 09:03:13;;;;;;;45.67;24.23;;;;;;;;;;5040069;28;20060;-75
2022/10/20 09:05:41;;;;;;;3.15;2.17;;;;;;;;;;5039808;28;20013;-74
2022/10/20 09:08:07;;;;;;;2.65;1.90;;;;;;;;;;5039968;28;20407;-74
2022/10/20 09:10:35;;;;;;;4.65;1.80;;;;;;;;;;5039949;28;20033;-75
2022/10/20 09:13:02;;;;;;;7.57;2.92;;;;;;;;;;5039787;28;20025;-74
2022/10/20 09:15:28;;;;;;;4.95;1.70;;;;;;;;;;5039695;28;20034;-75
2022/10/20 09:18:03;;;;;;;6.20;1.80;;;;;;;;;;5039894;28;20344;-74
2022/10/20 09:20:39;;;;;;;6.05;1.85;;;;;;;;;;5039694;28;20404;-74
2022/10/20 09:23:05;;;;;;;7.22;2.25;;;;;;;;;;5039427;28;20446;-75
2022/10/20 09:25:32;;;;;;;4.35;2.38;;;;;;;;;;5039900;28;20096;-75
2022/10/20 09:27:58;;;;;;;5.35;2.00;;;;;;;;;;5039776;28;20110;-74
2022/10/20 09:30:32;;;;;;;7.13;1.90;;;;;;;;;;5039609;28;20053;-74
2022/10/20 09:32:59;;;;;;;7.28;2.38;;;;;;;;;;5039499;28;20068;-74
2022/10/20 09:35:27;;;;;;;5.38;2.03;;;;;;;;;;5039468;28;20309;-75
2022/10/20 09:37:53;;;;;;;4.03;1.88;;;;;;;;;;5039484;28;20033;-75
2022/10/20 09:40:19;;;;;;;3.33;2.00;;;;;;;;;;5039630;28;20028;-74
2022/10/20 09:43:14;;;;;;;4.00;2.00;;;;;;;;;;5039375;28;20029;-75
2022/10/20 09:45:49;;;;;;;6.45;2.30;;;;;;;;;;4959280;29;20050;-75
2022/10/20 09:48:22;;;;;;;10.32;6.20;;;;;;;;;;4961942;28;20041;-74
2022/10/20 09:50:50;;;;;;;6.80;3.20;;;;;;;;;;4978244;28;20310;-75
2022/10/20 09:53:18;;;;;;;7.25;2.28;;;;;;;;;;4962065;28;20050;-74
2022/10/20 09:55:48;;;;;;;3.67;2.00;;;;;;;;;;4978014;28;20035;-74
2022/10/20 09:58:18;;;;;;;2.60;1.50;;;;;;;;;;4978549;28;20094;-74
2022/10/20 10:00:46;;;;;;;5.05;1.40;;;;;;;;;;4978303;28;20420;-74
2022/10/20 10:03:20;;;;;;;2.83;1.50;;;;;;;;;;4978425;28;20039;-74
2022/10/20 10:05:51;;;;;;;6.25;2.33;;;;;;;;;;4978348;28;20313;-74
2022/10/20 10:08:18;;;;;;;7.82;5.00;;;;;;;;;;4978297;28;20075;-74
2022/10/20 10:10:46;;;;;;;4.25;2.28;;;;;;;;;;4961977;28;20483;-74
2022/10/20 10:13:20;;;;;;;5.28;1.95;;;;;;;;;;4978113;28;20437;-74
2022/10/20 10:15:46;;;;;;;7.68;1.90;;;;;;;;;;4969663;28;20461;-74
2022/10/20 10:18:14;;;;;;;7.63;2.22;;;;;;;;;;4942284;29;20330;-74
2022/10/20 10:20:40;;;;;;;4.50;1.52;;;;;;;;;;4958162;29;20023;-75
2022/10/20 10:23:18;;;;;;;5.18;2.35;;;;;;;;;;5016623;28;20078;-74
2022/10/20 10:25:44;;;;;;;3.45;1.80;;;;;;;;;;5036986;28;20041;-74
2022/10/20 10:28:29;;;;;;;2.17;1.83;;;;;;;;;;5038367;28;20420;-74
2022/10/20 10:31:05;;;;;;;5.07;2.20;;;;;;;;;;5038584;28;20029;-74
2022/10/20 10:33:32;;;;;;;4.22;1.95;;;;;;;;;;5038515;28;20152;-74
2022/10/20 10:35:58;;;;;;;2.78;2.33;;;;;;;;;;5038304;28;20403;-74
2022/10/20 10:38:24;;;;;;;5.10;2.42;;;;;;;;;;5020565;28;20091;-74
2022/10/20 10:40:53;;;;;;;5.38;2.13;;;;;;;;;;5038263;28;20442;-74
2022/10/20 10:43:38;;;;;;;6.07;2.20;;;;;;;;;;5038471;28;20052;-74
2022/10/20 10:46:08;;;;;;;3.42;1.88;;;;;;;;;;5038161;28;20475;-74
2022/10/20 10:48:44;;;;;;;3.72;2.30;;;;;;;;;;5038194;28;20025;-74
2022/10/20 10:51:16;;;;;;;4.40;1.70;;;;;;;;;;5038244;28;20033;-74
2022/10/20 10:54:00;;;;;;;6.18;3.17;;;;;;;;;;5038185;28;20328;-74
2022/10/20 10:56:33;;;;;;;7.60;3.60;;;;;;;;;;5038089;28;20052;-74
2022/10/20 10:59:14;;;;;;;5.85;3.00;;;;;;;;;;5037912;28;20426;-74
2022/10/20 11:01:40;;;;;;;7.38;3.47;;;;;;;;;;5020037;28;20045;-74
2022/10/20 11:04:06;;;;;;;6.50;2.22;;;;;;;;;;5020493;28;20045;-74
2022/10/20 11:06:32;;;;;;;4.82;1.98;;;;;;;;;;5036970;28;20017;-74
2022/10/20 11:09:11;;;;;;;8.40;1.90;;;;;;;;;;5037783;28;20022;-74
2022/10/20 11:11:37;;;;;;;6.10;3.17;;;;;;;;;;5037713;28;20408;-74
2022/10/20 11:14:12;;;;;;;6.25;1.95;;;;;;;;;;5037613;28;20181;-74
2022/10/20 11:16:54;;;;;;;4.25;2.30;;;;;;;;;;5037814;28;20033;-74
2022/10/20 11:19:29;;;;;;;6.97;2.00;;;;;;;;;;5037704;28;20025;-74
2022/10/20 11:22:14;;;;;;;3.65;1.80;;;;;;;;;;5037348;28;20034;-74
2022/10/20 11:24:47;;;;;;;4.05;2.08;;;;;;;;;;5037359;28;20427;-74
2022/10/20 11:27:22;;;;;;;4.68;1.75;;;;;;;;;;5037630;28;20025;-74
2022/10/20 11:30:04;;;;;;;4.68;2.63;;;;;;;;;;5037483;28;20021;-74
2022/10/20 11:32:39;;;;;;;7.22;3.33;;;;;;;;;;5037434;28;20033;-74
2022/10/20 11:35:13;;;;;;;7.63;3.88;;;;;;;;;;5037362;28;20026;-74
2022/10/20 11:37:51;;;;;;;8.00;3.88;;;;;;;;;;5037494;28;20021;-74
2022/10/20 11:40:28;;;;;;;5.88;2.92;;;;;;;;;;5037425;28;20478;-74
2022/10/20 11:43:05;;;;;;;5.38;2.25;;;;;;;;;;5037310;28;20179;-74
2022/10/20 11:45:37;;;;;;;7.15;2.30;;;;;;;;;;5037117;28;20101;-74
2022/10/20 11:48:10;;;;;;;6.60;2.00;;;;;;;;;;5035793;28;20093;-74
2022/10/20 11:50:36;;;;;;;3.45;1.90;;;;;;;;;;5036927;28;20049;-74
2022/10/20 11:53:25;;;;;;;9.40;5.00;;;;;;;;;;5036741;28;20025;-73
2022/10/20 11:56:00;;;;;;;6.07;1.60;;;;;;;;;;5036604;28;20041;-74
2022/10/20 11:58:41;;;;;;;5.75;2.22;;;;;;;;;;5036741;28;20029;-75
2022/10/20 12:01:17;;;;;;;5.18;2.17;;;;;;;;;;5036859;28;20056;-74
2022/10/20 12:03:52;;;;;;;6.63;2.60;;;;;;;;;;5036833;28;20414;-74
2022/10/20 12:06:17;;;;;;;8.20;4.35;;;;;;;;;;5036711;28;20053;-74
2022/10/20 12:08:47;;;;;;;10.10;3.10;;;;;;;;;;5036655;28;20060;-74
2022/10/20 12:11:31;;;;;;;7.80;3.80;;;;;;;;;;5036738;28;20021;-74
2022/10/20 12:14:00;;;;;;;8.30;4.43;;;;;;;;;;5035930;28;20033;-74
2022/10/20 12:16:58;;;;;;;7.13;2.90;;;;;;;;;;5036130;28;20351;-75
2022/10/20 12:19:28;;;;;;;7.18;2.63;;;;;;;;;;4979799;28;20035;-74
2022/10/20 12:22:02;;;;;;;4.82;2.20;;;;;;;;;;4979985;28;20045;-74
2022/10/20 12:24:38;;;;;;;5.03;2.22;;;;;;;;;;4980018;28;20094;-74
2022/10/20 12:27:10;;;;;;;5.38;2.67;;;;;;;;;;4980031;28;20109;-74
2022/10/20 12:29:36;;;;;;;9.07;2.85;;;;;;;;;;4979903;28;20119;-74
2022/10/20 12:32:22;;;;;;;4.68;2.13;;;;;;;;;;4979361;28;20385;-74
2022/10/20 12:34:49;;;;;;;9.65;5.00;;;;;;;;;;4973327;28;20043;-75
2022/10/20 12:37:18;;;;;;;6.95;3.05;;;;;;;;;;4979474;28;20045;-74
2022/10/20 12:39:45;;;;;;;4.90;2.10;;;;;;;;;;4979971;28;20030;-74
2022/10/20 12:42:22;;;;;;;7.28;2.30;;;;;;;;;;4988752;28;20030;-75
2022/10/20 12:44:49;;;;;;;5.25;2.67;;;;;;;;;;4979760;28;20019;-75
2022/10/20 12:47:24;;;;;;;5.18;2.20;;;;;;;;;;4979723;28;20027;-74
2022/10/20 12:49:56;;;;;;;5.43;3.03;;;;;;;;;;4978947;28;20062;-74
2022/10/20 12:52:26;;;;;;;7.20;1.75;;;;;;;;;;4979657;28;20448;-74
2022/10/20 12:55:01;;;;;;;4.00;2.13;;;;;;;;;;5007302;28;20042;-74
2022/10/20 12:57:36;;;;;;;4.70;1.83;;;;;;;;;;5040247;28;20104;-74
2022/10/20 13:00:06;;;;;;;4.22;1.95;;;;;;;;;;5039998;28;20063;-74
2022/10/20 13:02:42;;;;;;;5.85;1.80;;;;;;;;;;5040070;28;20049;-74
2022/10/20 13:05:08;;;;;;;7.15;1.90;;;;;;;;;;5040157;28;20049;-73
2022/10/20 13:08:00;;;;;;;4.63;2.17;;;;;;;;;;5039988;28;20036;-74
2022/10/20 13:10:29;;;;;;;4.53;1.85;;;;;;;;;;4960028;29;20031;-74
2022/10/20 13:13:01;;;;;;;8.32;3.75;;;;;;;;;;4959566;29;20046;-75
2022/10/20 13:15:27;;;;;;;;;;;;;;;;;;4960146;29;20441;-75
2022/10/20 13:17:53;;;;;;;5.00;2.67;;;;;;;;;;4959722;28;19942;-74
2022/10/20 13:20:39;;;;;;;4.97;2.20;;;;;;;;;;4959701;29;20038;-74
2022/10/20 13:23:08;;;;;;;5.38;1.95;;;;;;;;;;4940222;29;20043;-74
2022/10/20 13:25:37;;;;;;;8.77;1.88;;;;;;;;;;4940542;29;20079;-74
2022/10/20 13:28:06;;;;;;;4.32;2.22;;;;;;;;;;4940544;29;20116;-74
2022/10/20 13:30:33;;;;;;;6.63;1.90;;;;;;;;;;4939540;29;20043;-75
2022/10/20 13:33:10;;;;;;;3.33;1.60;;;;;;;;;;4940278;29;20024;-74
2022/10/20 13:35:40;;;;;;;4.97;1.75;;;;;;;;;;4940359;29;20028;-74
2022/10/20 13:38:11;;;;;;;10.05;4.35;;;;;;;;;;4940400;29;20498;-74
2022/10/20 13:40:42;;;;;;;8.88;4.30;;;;;;;;;;4940456;29;20039;-74
2022/10/20 13:43:26;;;;;;;13.13;5.63;;;;;;;;;;4940204;29;20036;-74
2022/10/20 13:46:12;;;;;;;17.73;5.57;;;;;;;;;;4939269;29;20354;-74
2022/10/20 13:48:38;;;;;;;3.08;1.95;;;;;;;;;;5017455;28;20045;-75
2022/10/20 13:51:17;;;;;;;6.55;3.80;;;;;;;;;;5001231;28;20037;-75
2022/10/20 13:53:45;;;;;;;3.75;2.40;;;;;;;;;;5017533;28;20042;-74
2022/10/20 13:56:17;;;;;;;4.18;2.30;;;;;;;;;;5017676;28;20324;-74
2022/10/20 13:59:01;;;;;;;10.00;5.88;;;;;;;;;;5017595;28;20121;-74
2022/10/20 14:01:28;;;;;;;7.32;3.50;;;;;;;;;;5039142;28;20030;-75
2022/10/20 14:03:54;;;;;;;6.47;2.80;;;;;;;;;;5039081;28;20026;-75
2022/10/20 14:06:26;;;;;;;20.00;9.40;;;;;;;;;;5039345;28;20083;-75
2022/10/20 14:08:53;;;;;;;5.30;3.33;;;;;;;;;;5039197;28;20032;-75
2022/10/20 14:11:19;;;;;;;9.85;4.00;;;;;;;;;;5038808;28;20113;-74
2022/10/20 14:13:45;;;;;;;6.05;3.70;;;;;;;;;;5037809;28;20021;-74
2022/10/20 14:16:19;;;;;;;7.72;2.15;;;;;;;;;;5038780;28;20025;-74
2022/10/20 14:18:58;;;;;;;4.95;2.90;;;;;;;;;;5038783;28;20104;-74
2022/10/20 14:21:27;;;;;;;5.93;2.78;;;;;;;;;;5038688;28;20424;-74
2022/10/20 14:23:54;;;;;;;6.45;3.58;;;;;;;;;;5038507;28;20124;-74
2022/10/20 14:26:21;;;;;;;11.40;3.35;;;;;;;;;;5037623;28;20065;-74
2022/10/20 14:28:49;;;;;;;5.00;2.42;;;;;;;;;;5038654;28;20068;-74
2022/10/20 14:31:15;;;;;;;3.70;1.83;;;;;;;;;;5038410;28;20029;-74
2022/10/20 14:33:43;;;;;;;14.45;5.65;;;;;;;;;;5038520;28;20025;-74
2022/10/20 14:36:17;;;;;;;18.90;9.57;;;;;;;;;;5038425;28;20064;-75
2022/10/20 14:38:45;;;;;;;6.72;3.33;;;;;;;;;;5038587;28;20029;-74
2022/10/20 14:41:12;;;;;;;7.82;2.70;;;;;;;;;;5038288;28;20080;-74
2022/10/20 14:43:42;;;;;;;7.47;3.30;;;;;;;;;;5038302;28;20324;-74
2022/10/20 14:46:10;;;;;;;5.55;2.45;;;;;;;;;;5038126;28;20394;-74
2022/10/20 14:48:40;;;;;;;12.05;2.90;;;;;;;;;;5037175;28;20030;-74